M I D A S
Marine Information and Data Acquisition System
Tripno 310 of the Zeeleeuw from 2002-08-26 06:38:59 to 2002-08-26 12:56:00
Back to CruiseResearch ActivitiesStationsMapUnderway DataData graphs

EquipmentUnitsComment
TimeDGPSUTC
LatitudeDGPSDM.mWGS84
LongitudeDGPSDM.mWGS84
HeadingGyrodeg 
SOGDGPSknotsSpeed over ground
COGDGPSdegCourse over ground
DepthEcho soundermeters200 kHz
Missing or incorrect values are displayed as -999
Navigation data collected by the RV Zeeleeuw from 2002-08-26 06:38:59 to 2002-08-26 12:56:00
Time Latitude Longitude Heading SOG COG Depth
2002-08-26 06:40:02 51°13.668 2°55.932 108 2.2 291.3 -999
2002-08-26 06:41:02 51°13.682 2°55.854 100.7 3.3 283 -999
2002-08-26 06:42:00 51°13.687 2°55.781 85.3 2.5 270 12.2
2002-08-26 06:43:00 51°13.686 2°55.744 67.8 0.5 275.6 13.1
2002-08-26 06:44:00 51°13.71 2°55.753 3.8 3 357.6 13.2
2002-08-26 06:45:02 51°13.786 2°55.677 329.8 7 326 9.2
2002-08-26 06:46:00 51°13.902 2°55.58 338.8 8.8 335.2 9.7
2002-08-26 06:47:00 51°14.035 2°55.48 339.2 8.9 334.6 10.2
2002-08-26 06:48:00 51°14.166 2°55.375 334.5 8.8 330.9 10
2002-08-26 06:49:00 51°14.279 2°55.225 314 8.9 310.8 9.1
2002-08-26 06:50:01 51°14.358 2°55.023 303.7 8.6 297.2 9.4
2002-08-26 06:51:00 51°14.373 2°54.783 268 10.9 261.4 9
2002-08-26 06:52:00 51°14.329 2°54.478 253.5 12.3 249.1 -999
2002-08-26 06:53:00 51°14.244 2°54.174 248.7 12.8 244.1 8.5
2002-08-26 06:54:00 51°14.153 2°53.851 249.2 13.9 245 8.5
2002-08-26 06:55:01 51°14.052 2°53.485 248.8 15.2 246.4 8.7
2002-08-26 06:56:02 51°13.949 2°53.115 247 14.3 245.5 8.8
2002-08-26 06:57:00 51°13.852 2°52.753 249.3 15.7 246.3 9.6
2002-08-26 06:58:00 51°13.739 2°52.385 246.2 15.5 243.9 9.8
2002-08-26 06:59:00 51°13.621 2°52.018 248 15.3 243.8 9.9
2002-08-26 07:00:01 51°13.508 2°51.64 247.2 15.4 245 9.9
2002-08-26 07:01:00 51°13.397 2°51.273 246.5 15.6 244 10.2
2002-08-26 07:02:00 51°13.272 2°50.909 241.2 15.7 238.9 10.3
2002-08-26 07:03:00 51°13.142 2°50.552 241 15.6 239.7 10.4
2002-08-26 07:04:00 51°13.008 2°50.196 241.5 15.7 239.5 10.6
2002-08-26 07:05:00 51°12.878 2°49.833 243 16 242 10.6
2002-08-26 07:05:59 51°12.746 2°49.474 239.5 15.8 238.4 10.8
2002-08-26 07:07:00 51°12.615 2°49.102 241 15.6 239.7 11
2002-08-26 07:08:00 51°12.483 2°48.742 241.8 15.8 239.6 10.9
2002-08-26 07:09:00 51°12.354 2°48.379 242.3 15.6 240.6 11.2
2002-08-26 07:10:00 51°12.227 2°48.031 242 15 240.4 11.2
2002-08-26 07:11:01 51°12.103 2°47.679 242.7 14.8 240.3 11.2
2002-08-26 07:12:00 51°11.981 2°47.348 242.7 15 240.9 11.1
2002-08-26 07:13:00 51°11.861 2°47.002 243 14.9 240.7 10.8
2002-08-26 07:14:00 51°11.738 2°46.664 241.3 14.8 240.1 10.8
2002-08-26 07:15:01 51°11.611 2°46.317 239.3 14.7 238.2 10.8
2002-08-26 07:16:00 51°11.482 2°45.991 237.5 14.8 235.7 10.2
2002-08-26 07:17:00 51°11.348 2°45.66 239.8 15 238.3 9.7
2002-08-26 07:18:01 51°11.208 2°45.333 237 14.6 236.1 9.1
2002-08-26 07:19:01 51°11.076 2°45.012 237.8 14.5 237.1 8.6
2002-08-26 07:20:01 51°10.944 2°44.697 238.2 14.2 237.5 8.1
2002-08-26 07:21:00 51°10.812 2°44.392 237.8 14.1 236.3 7.8
2002-08-26 07:22:01 51°10.678 2°44.081 237.2 13.8 237.2 7.4
2002-08-26 07:23:01 51°10.554 2°43.766 239.5 14.1 237.9 7.4
2002-08-26 07:24:00 51°10.436 2°43.454 242.3 14.1 240.8 7.4
2002-08-26 07:25:00 51°10.332 2°43.123 244.8 13.9 243.7 7.4
2002-08-26 07:26:00 51°10.241 2°42.782 247 13.9 245.5 7.5
2002-08-26 07:27:00 51°10.157 2°42.436 249.8 14 248.5 7.3
2002-08-26 07:28:01 51°10.078 2°42.083 255.5 13.8 252.8 7.2
2002-08-26 07:28:59 51°10.008 2°41.747 254.2 13.9 252.2 7.2
2002-08-26 07:30:00 51°9.961 2°41.382 262.7 14 259.5 7.2
2002-08-26 07:31:00 51°9.917 2°41.018 261 14.1 258.2 7.6
2002-08-26 07:32:01 51°9.871 2°40.641 258.8 14.5 256.2 8
2002-08-26 07:33:00 51°9.828 2°40.269 262.2 14.5 259.8 8.2
2002-08-26 07:34:00 51°9.783 2°39.888 263 14.7 260.1 8.6
2002-08-26 07:35:01 51°9.743 2°39.494 264.7 14.9 261.1 9.1
2002-08-26 07:36:02 51°9.699 2°39.099 263.5 14.9 260.3 9.4
2002-08-26 07:37:00 51°9.657 2°38.721 262 14.9 259 9.9
2002-08-26 07:37:59 51°9.616 2°38.34 264.8 14.8 261.3 10.3
2002-08-26 07:39:00 51°9.581 2°37.945 265.2 14.8 263.1 11.3
2002-08-26 07:39:59 51°9.552 2°37.561 268.5 14.8 264.1 12.7
2002-08-26 07:41:00 51°9.516 2°37.162 265.3 15.1 261.4 14.2
2002-08-26 07:42:00 51°9.489 2°36.766 269.2 15.2 264.4 14.5
2002-08-26 07:43:00 51°9.502 2°36.372 288 14.9 281 14.8
2002-08-26 07:44:00 51°9.625 2°36.061 328.8 13.8 318.5 15.9
2002-08-26 07:45:01 51°9.822 2°35.881 347.2 13.2 336 17
2002-08-26 07:46:00 51°10.026 2°35.781 5.5 12.7 356.2 15.4
2002-08-26 07:47:00 51°10.217 2°35.874 33.8 12 28.8 9.4
2002-08-26 07:48:02 51°10.405 2°36.03 31.5 12.5 26.9 9.3
2002-08-26 07:49:00 51°10.587 2°36.167 29.5 12.6 25 9.5
2002-08-26 07:50:00 51°10.778 2°36.302 28 12.5 23.4 10.3
2002-08-26 07:51:01 51°10.965 2°36.453 32.7 12.3 27.9 10.8
2002-08-26 07:52:05 51°11.157 2°36.618 33.3 12.3 28.6 11.3
2002-08-26 07:53:05 51°11.337 2°36.771 33 12.2 27.6 11.4
2002-08-26 07:54:05 51°11.516 2°36.926 33.5 12.2 28.4 11.5
2002-08-26 07:55:04 51°11.692 2°37.075 33.3 12.2 28.6 11.2
2002-08-26 07:56:05 51°11.874 2°37.228 33.2 12.1 27.7 11.2
2002-08-26 07:57:05 51°12.053 2°37.379 34 12.2 28.3 11
2002-08-26 07:58:05 51°12.235 2°37.523 31.5 12.2 25.3 10.7
2002-08-26 07:59:04 51°12.417 2°37.656 31.7 12.2 25.1 11
2002-08-26 08:00:05 51°12.604 2°37.796 32.7 12.3 26.7 11.3
2002-08-26 08:01:04 51°12.783 2°37.939 32 12.2 26.2 11.7
2002-08-26 08:02:04 51°12.966 2°38.084 32.2 12.3 25.6 12.3
2002-08-26 08:03:04 51°13.148 2°38.228 31.2 12.1 25.8 12.6
2002-08-26 08:04:05 51°13.332 2°38.373 32.7 12.2 26 12.9
2002-08-26 08:05:05 51°13.514 2°38.517 32.2 12.2 25 13
2002-08-26 08:06:05 51°13.697 2°38.658 33.7 12.2 26.8 12.7
2002-08-26 08:07:03 51°13.882 2°38.752 15.3 12.3 7.1 11.6
2002-08-26 08:08:04 51°14.08 2°38.626 328.8 13.6 321.5 12.5
2002-08-26 08:09:04 51°14.15 2°38.293 257.8 14.4 257 16.6
2002-08-26 08:10:04 51°14.049 2°37.925 245.5 15.5 244.2 17.1
2002-08-26 08:11:03 51°13.938 2°37.565 244.7 15.3 244.6 18
2002-08-26 08:12:04 51°13.826 2°37.191 245.2 15.4 245.2 17.8
2002-08-26 08:13:04 51°13.72 2°36.824 245.7 15.3 244.6 18.3
2002-08-26 08:14:04 51°13.611 2°36.455 244.5 15.1 242.5 17.6
2002-08-26 08:15:05 51°13.501 2°36.081 244.7 15.2 243.2 16.1
2002-08-26 08:16:04 51°13.393 2°35.714 246.7 15.7 244.8 16.2
2002-08-26 08:17:04 51°13.281 2°35.346 245.8 15.2 244.5 16
2002-08-26 08:18:05 51°13.166 2°34.98 244.2 15.2 242.4 15.8
2002-08-26 08:19:05 51°13.056 2°34.618 246.5 15.2 244.3 16.1
2002-08-26 08:20:04 51°12.945 2°34.26 247.2 15.3 242.9 15.7
2002-08-26 08:21:06 51°12.828 2°33.89 245.5 14.9 242 15.2
2002-08-26 08:22:04 51°12.722 2°33.549 251.8 14.7 248.3 13.6
2002-08-26 08:23:04 51°12.62 2°33.196 249.8 14.8 246.3 13.3
2002-08-26 08:24:04 51°12.519 2°32.833 250.2 14.6 246.9 14.6
2002-08-26 08:25:04 51°12.415 2°32.479 249.5 14.8 244.7 15.9
2002-08-26 08:26:05 51°12.315 2°32.108 253.3 15 248.5 17.4
2002-08-26 08:27:05 51°12.222 2°31.738 253.7 15 248.5 19.8
2002-08-26 08:28:04 51°12.131 2°31.373 251.8 15.1 248.9 20.8
2002-08-26 08:29:04 51°12.036 2°31.004 252.8 15.2 247.4 21.2
2002-08-26 08:30:04 51°11.945 2°30.626 254.5 15.5 248.7 21.2
2002-08-26 08:31:05 51°11.852 2°30.239 253.2 15.4 248 21.6
2002-08-26 08:32:05 51°11.758 2°29.856 254 15.4 248.6 21.5
2002-08-26 08:33:04 51°11.668 2°29.485 253.2 15.2 248.9 21.5
2002-08-26 08:34:05 51°11.581 2°29.097 259.7 15.4 252.6 22
2002-08-26 08:35:04 51°11.509 2°28.719 259.2 15.3 253.7 21.5
2002-08-26 08:36:04 51°11.435 2°28.329 257.8 15.3 253.2 20.7
2002-08-26 08:37:04 51°11.365 2°27.932 258.8 15.3 254.8 21.5
2002-08-26 08:38:04 51°11.298 2°27.538 258.2 15.3 254.5 21
2002-08-26 08:39:04 51°11.227 2°27.143 258 15.5 254.4 20.9
2002-08-26 08:40:04 51°11.163 2°26.75 260.8 15.4 257.1 20.7
2002-08-26 08:41:04 51°11.106 2°26.357 259.3 15.2 254.9 17.1
2002-08-26 08:42:04 51°11.054 2°25.962 269.3 15.1 263.6 14.8
2002-08-26 08:43:04 51°11.058 2°25.565 287.3 14.9 279.8 11.4
2002-08-26 08:44:04 51°11.175 2°25.248 332.5 13.4 320.7 19
2002-08-26 08:45:04 51°11.368 2°25.207 28 11.9 20.2 21.9
2002-08-26 08:46:04 51°11.551 2°25.333 29.5 12.1 22.5 22.6
2002-08-26 08:47:04 51°11.735 2°25.453 29.3 12 22 23.6
2002-08-26 08:48:04 51°11.915 2°25.576 30 11.8 22.8 23.5
2002-08-26 08:49:04 51°12.094 2°25.701 30 11.6 24.6 23.9
2002-08-26 08:50:04 51°12.266 2°25.834 34.2 11.4 28.8 24
2002-08-26 08:51:04 51°12.421 2°26.007 40.7 11.5 37.3 24.3
2002-08-26 08:52:04 51°12.578 2°26.19 40.3 11.6 35.5 24.6
2002-08-26 08:53:04 51°12.731 2°26.371 40.3 11.4 35.9 23.8
2002-08-26 08:54:04 51°12.888 2°26.552 40.5 11.9 36.1 24
2002-08-26 08:55:04 51°13.049 2°26.739 40.7 12 35.9 24.5
2002-08-26 08:56:04 51°13.212 2°26.926 40 12.1 35.1 24.3
2002-08-26 08:57:06 51°13.364 2°27.145 46.5 12 43.1 25.2
2002-08-26 08:58:05 51°13.506 2°27.359 46.3 11.9 42.7 24.7
2002-08-26 08:59:04 51°13.648 2°27.573 46.3 11.9 43.4 24.8
2002-08-26 09:00:05 51°13.795 2°27.793 45.5 11.9 43.2 25
2002-08-26 09:01:06 51°13.941 2°28.012 46.2 11.9 43.3 25
2002-08-26 09:02:06 51°14.086 2°28.23 46.5 12 43.4 25.1
2002-08-26 09:03:05 51°14.23 2°28.447 46 12.1 43.4 25.7
2002-08-26 09:04:06 51°14.38 2°28.67 46.3 12.1 43.3 26.2
2002-08-26 09:05:05 51°14.521 2°28.893 48 12.2 46.2 26.3
2002-08-26 09:06:05 51°14.663 2°29.122 47.5 12.2 45.4 26.3
2002-08-26 09:07:04 51°14.801 2°29.347 48.3 12.1 45.9 26.4
2002-08-26 09:08:06 51°14.951 2°29.581 48.3 12.2 44.5 26.5
2002-08-26 09:09:06 51°15.094 2°29.806 48.8 12.1 44.9 26.6
2002-08-26 09:10:06 51°15.24 2°30.031 48.3 12.2 44.1 26.4
2002-08-26 09:11:05 51°15.382 2°30.254 48.7 12.2 44 26.8
2002-08-26 09:12:06 51°15.528 2°30.483 48.7 12 44.9 26.6
2002-08-26 09:13:05 51°15.668 2°30.701 49.7 11.8 45.4 26.4
2002-08-26 09:14:06 51°15.815 2°30.925 48.3 12 43.5 26.3
2002-08-26 09:15:06 51°15.959 2°31.145 47.5 11.9 42.9 26.2
2002-08-26 09:16:06 51°16.105 2°31.365 46.8 12.1 42.9 26.6
2002-08-26 09:17:04 51°16.245 2°31.58 48.7 12 45.1 26.8
2002-08-26 09:18:04 51°16.392 2°31.803 48.5 12.3 44.3 26.5
2002-08-26 09:19:04 51°16.541 2°32.027 47.8 12.3 43.6 25.5
2002-08-26 09:20:04 51°16.691 2°32.248 46.2 12.2 42.4 24.3
2002-08-26 09:21:06 51°16.849 2°32.472 45.3 12.4 40.9 24.3
2002-08-26 09:22:06 51°17.001 2°32.685 46 12 41.4 23.6
2002-08-26 09:23:05 51°17.148 2°32.895 46.2 12.1 42.3 23.7
2002-08-26 09:24:05 51°17.299 2°33.107 46.5 12.1 41.6 24.9
2002-08-26 09:25:05 51°17.451 2°33.319 45.5 12.1 40.2 26.7
2002-08-26 09:26:05 51°17.597 2°33.535 49.2 11.9 45.7 25.7
2002-08-26 09:27:06 51°17.733 2°33.769 51.2 11.8 46.4 27
2002-08-26 09:28:05 51°17.864 2°33.99 52.5 11.5 47 27.3
2002-08-26 09:29:06 51°18 2°34.22 51.8 11.7 46.9 27.3
2002-08-26 09:30:05 51°18.131 2°34.442 51.7 11.8 47 27.2
2002-08-26 09:31:06 51°18.268 2°34.673 50.8 11.8 47.2 25.7
2002-08-26 09:32:06 51°18.404 2°34.906 51.3 11.9 47.9 23.4
2002-08-26 09:33:06 51°18.539 2°35.139 50.5 12 47.3 22.6
2002-08-26 09:34:06 51°18.674 2°35.375 51 12 47.9 24.3
2002-08-26 09:35:04 51°18.806 2°35.602 51 12.1 47.2 20.5
2002-08-26 09:36:06 51°18.943 2°35.844 51.2 11.8 47.3 20.9
2002-08-26 09:37:06 51°19.077 2°36.08 51.7 12 48.9 19
2002-08-26 09:38:06 51°19.212 2°36.316 50.7 12 47.9 21.2
2002-08-26 09:39:06 51°19.346 2°36.551 50.8 12 47.6 18.4
2002-08-26 09:40:04 51°19.475 2°36.778 51 12 48.1 18.7
2002-08-26 09:41:05 51°19.609 2°37.016 50.2 11.9 47.4 20.6
2002-08-26 09:42:06 51°19.744 2°37.255 49.8 11.8 47 20.8
2002-08-26 09:43:05 51°19.874 2°37.482 50.2 11.9 46.8 19.5
2002-08-26 09:44:06 51°20.007 2°37.719 50.8 11.8 47.4 21.8
2002-08-26 09:45:04 51°20.127 2°37.951 56.2 11.7 53.6 21.7
2002-08-26 09:46:05 51°20.239 2°38.212 56.5 11.6 54.7 23.6
2002-08-26 09:47:05 51°20.35 2°38.465 56.5 11.7 54.4 22
2002-08-26 09:48:06 51°20.459 2°38.729 59.2 11.7 57.3 23.9
2002-08-26 09:49:06 51°20.564 2°38.99 59.7 11.7 57.2 24.6
2002-08-26 09:50:06 51°20.67 2°39.252 59.2 11.7 56.3 24.9
2002-08-26 09:51:06 51°20.772 2°39.518 61.8 11.7 59.1 25
2002-08-26 09:52:06 51°20.871 2°39.786 60.8 11.7 59.3 26
2002-08-26 09:53:05 51°20.968 2°40.053 61.3 11.9 59.2 26.1
2002-08-26 09:54:04 51°21.066 2°40.321 60.7 12 58.8 26.5
2002-08-26 09:55:06 51°21.17 2°40.607 61 12.2 59.6 25.3
2002-08-26 09:56:06 51°21.286 2°40.872 57.3 12.2 54.9 24.2
2002-08-26 09:57:05 51°21.401 2°41.13 56.3 12.1 54.5 24
2002-08-26 09:58:04 51°21.504 2°41.402 64 12.2 62.6 25.8
2002-08-26 09:59:06 51°21.594 2°41.709 66 12.4 63.8 26.2
2002-08-26 10:00:05 51°21.678 2°42.006 67.5 12.5 67.1 22.2
2002-08-26 10:01:05 51°21.76 2°42.303 68.5 12.3 66.5 25
2002-08-26 10:02:06 51°21.828 2°42.609 62.8 12 61.7 22.6
2002-08-26 10:03:06 51°21.878 2°42.919 79 12.3 79.9 24.5
2002-08-26 10:04:05 51°21.91 2°43.238 85.2 12.5 85.1 22.8
2002-08-26 10:05:06 51°21.899 2°43.482 99.8 6.4 108.3 20
2002-08-26 10:06:06 51°21.855 2°43.588 103 3.8 126.1 23.2
2002-08-26 10:07:06 51°21.771 2°43.628 183.7 7.1 189.2 22.8
2002-08-26 10:08:06 51°21.697 2°43.436 289.2 9.7 274.6 20.9
2002-08-26 10:09:06 51°21.817 2°43.287 353.5 10 341 21.3
2002-08-26 10:10:06 51°22.005 2°43.16 348.7 12.8 336.2 20.7
2002-08-26 10:11:04 51°22.195 2°43.029 348.8 12.8 337.1 22.4
2002-08-26 10:12:05 51°22.396 2°42.892 348.2 12.9 336.1 25.1
2002-08-26 10:13:06 51°22.593 2°42.728 341.8 13.2 330 25.9
2002-08-26 10:14:06 51°22.779 2°42.53 339 13.5 325.9 26
2002-08-26 10:15:04 51°22.958 2°42.338 339.8 13.5 326 26.3
2002-08-26 10:16:05 51°23.15 2°42.138 340 13.4 328 27.3
2002-08-26 10:17:06 51°23.343 2°41.94 339.8 13.7 326.9 26.4
2002-08-26 10:18:06 51°23.535 2°41.751 340.5 13.5 329.6 27.6
2002-08-26 10:19:05 51°23.725 2°41.573 339.8 13.5 329.6 25.9
2002-08-26 10:20:06 51°23.92 2°41.39 339.8 13.4 329.4 28.3
2002-08-26 10:21:06 51°24.113 2°41.225 344.2 13 334.3 28.1
2002-08-26 10:22:06 51°24.308 2°41.071 344.2 13.1 333.9 27.8
2002-08-26 10:23:04 51°24.497 2°40.925 343.5 12.9 334.1 24
2002-08-26 10:24:06 51°24.698 2°40.771 344 13 335.1 25
2002-08-26 10:25:06 51°24.893 2°40.625 345.3 12.8 336.1 26.4
2002-08-26 10:26:06 51°25.092 2°40.502 351.8 12.7 343.4 27.7
2002-08-26 10:27:06 51°25.299 2°40.444 2.8 12.5 354.3 27.3
2002-08-26 10:28:06 51°25.508 2°40.423 5.2 12.7 355.9 26.7
2002-08-26 10:29:05 51°25.711 2°40.393 4.5 12.4 354 30
2002-08-26 10:30:04 51°25.914 2°40.362 6.5 12.6 354.3 30.7
2002-08-26 10:31:06 51°26.128 2°40.351 18.8 12.2 9 31
2002-08-26 10:32:06 51°26.264 2°40.543 58.8 11.2 56.4 31.6
2002-08-26 10:33:05 51°26.359 2°40.799 62 11.5 60.5 32
2002-08-26 10:34:06 51°26.446 2°41.075 65.8 11.4 64.9 31.2
2002-08-26 10:35:06 51°26.529 2°41.35 65.3 11.5 64.6 29.8
2002-08-26 10:36:06 51°26.613 2°41.628 65.5 11.6 64.2 29.5
2002-08-26 10:37:05 51°26.697 2°41.901 65.3 11.6 64.5 30
2002-08-26 10:38:06 51°26.784 2°42.181 64.7 11.6 63.7 30.5
2002-08-26 10:39:06 51°26.871 2°42.459 65.2 11.7 63.3 31.5
2002-08-26 10:40:06 51°26.955 2°42.738 66.5 11.6 64.7 31.2
2002-08-26 10:41:06 51°27.042 2°43.016 63.8 11.7 62.3 29.8
2002-08-26 10:42:06 51°27.125 2°43.299 68.3 11.7 67.5 30
2002-08-26 10:43:06 51°27.196 2°43.589 68.7 11.7 67.8 28.9
2002-08-26 10:44:05 51°27.267 2°43.877 68.5 11.7 67.2 26.7
2002-08-26 10:45:06 51°27.34 2°44.171 68.8 11.7 69.2 26.7
2002-08-26 10:46:06 51°27.279 2°44.457 130.5 13.1 139.9 26.4
2002-08-26 10:47:06 51°27.081 2°44.641 140.5 13.6 148.3 24.9
2002-08-26 10:48:05 51°26.863 2°44.791 149.5 14.9 157.5 27.9
2002-08-26 10:49:05 51°26.641 2°44.937 148.3 14.5 156.3 28.2
2002-08-26 10:50:06 51°26.418 2°45.093 149.5 14.1 157.1 28
2002-08-26 10:51:06 51°26.2 2°45.253 147.7 14.5 154.2 26.7
2002-08-26 10:52:06 51°25.985 2°45.418 148.8 14.3 153.3 26.2
2002-08-26 10:53:05 51°25.772 2°45.585 150 14.3 153.4 25.7
2002-08-26 10:54:06 51°25.552 2°45.761 149.8 14.7 152.6 23.2
2002-08-26 10:55:05 51°25.336 2°45.93 149.7 14.1 154 25.8
2002-08-26 10:56:06 51°25.115 2°46.11 149.3 14.7 153.5 25.3
2002-08-26 10:57:06 51°24.898 2°46.286 148.7 14.8 151.9 24.8
2002-08-26 10:58:06 51°24.688 2°46.46 136.8 13.5 143.9 25.4
2002-08-26 10:59:05 51°24.667 2°46.742 64 11.2 63.1 29.3
2002-08-26 11:00:06 51°24.771 2°47.009 63 11.7 60.5 29.1
2002-08-26 11:01:06 51°24.869 2°47.282 62.5 11.9 59.9 29.3
2002-08-26 11:02:04 51°24.963 2°47.552 63.2 12.1 61.2 30.1
2002-08-26 11:03:06 51°25.066 2°47.844 62.5 12.3 61.6 28.4
2002-08-26 11:04:06 51°25.161 2°48.134 63 12.3 61.7 30.1
2002-08-26 11:05:04 51°25.257 2°48.413 61.7 12.3 60.5 29.9
2002-08-26 11:06:04 51°25.356 2°48.7 63 12.3 62.5 27.8
2002-08-26 11:07:06 51°25.454 2°49 62.7 12.3 61.1 24
2002-08-26 11:08:06 51°25.548 2°49.291 63.3 12.3 63.3 23.4
2002-08-26 11:09:04 51°25.639 2°49.572 63.7 12.3 62.6 23.1
2002-08-26 11:10:06 51°25.737 2°49.869 62.3 12.2 61 23.1
2002-08-26 11:11:06 51°25.833 2°50.159 61.7 12.3 61.5 23
2002-08-26 11:12:06 51°25.955 2°50.405 33 11.8 28.8 23.4
2002-08-26 11:13:04 51°26.142 2°50.334 338.2 13.2 327.7 23.4
2002-08-26 11:14:06 51°26.331 2°50.126 333.8 13.5 325.2 23.5
2002-08-26 11:15:04 51°26.51 2°49.936 335.5 13.4 326.9 23.6
2002-08-26 11:16:06 51°26.701 2°49.731 335.8 13.4 326.4 20.6
2002-08-26 11:17:06 51°26.883 2°49.53 335.8 13.2 324.8 21.3
2002-08-26 11:18:04 51°27.056 2°49.33 337 13.3 325.4 23.5
2002-08-26 11:19:04 51°27.241 2°49.137 338.2 13.2 327.1 24.8
2002-08-26 11:20:03 51°27.426 2°48.955 340.3 13.3 329.6 26
2002-08-26 11:21:06 51°27.626 2°48.765 339.7 13.4 328.9 27
2002-08-26 11:22:06 51°27.818 2°48.585 340.8 13.3 329.9 31
2002-08-26 11:23:06 51°28.016 2°48.42 341.2 13.5 331.9 30.5
2002-08-26 11:24:04 51°28.208 2°48.263 342.3 13.2 334 30.6
2002-08-26 11:25:04 51°28.407 2°48.113 349.2 13.1 341.1 32.1
2002-08-26 11:26:04 51°28.605 2°48.154 38 12.2 35.2 33.5
2002-08-26 11:27:04 51°28.688 2°48.448 74.2 12.7 75.3 32.4
2002-08-26 11:28:04 51°28.753 2°48.772 71.2 12.7 72.4 29.6
2002-08-26 11:29:04 51°28.816 2°49.094 72.3 12.7 73.3 28.6
2002-08-26 11:30:04 51°28.881 2°49.418 68.7 12.7 70.6 27.9
2002-08-26 11:31:04 51°28.951 2°49.735 68.2 12.5 69 28.3
2002-08-26 11:32:04 51°29.027 2°50.048 68.2 12.6 69.2 29
2002-08-26 11:33:06 51°29.106 2°50.372 66.7 12.7 67.9 29.1
2002-08-26 11:34:06 51°29.181 2°50.69 69 12.7 70.4 28.6
2002-08-26 11:35:06 51°29.26 2°51.005 68 12.7 67.4 27.6
2002-08-26 11:36:06 51°29.338 2°51.32 68.2 12.7 69 29.3
2002-08-26 11:37:06 51°29.416 2°51.637 68.3 12.7 69.1 29.1
2002-08-26 11:38:04 51°29.493 2°51.945 67.5 12.9 67.6 30.7
2002-08-26 11:39:06 51°29.519 2°52.297 96.3 13.2 100.3 30.5
2002-08-26 11:40:06 51°29.362 2°52.554 152.3 14.5 156 30.7
2002-08-26 11:41:04 51°29.149 2°52.701 152 14.5 155.7 28.9
2002-08-26 11:42:04 51°28.925 2°52.853 154.2 14.7 158.8 26.8
2002-08-26 11:43:04 51°28.697 2°52.99 153.3 14.4 159.8 26.3
2002-08-26 11:44:06 51°28.461 2°53.135 152.5 14.8 158.6 24.3
2002-08-26 11:45:06 51°28.236 2°53.283 152.3 14.8 158.3 23.1
2002-08-26 11:46:06 51°28.01 2°53.43 152.2 14.8 158.1 20.8
2002-08-26 11:47:06 51°27.787 2°53.589 152 14.7 155.6 20.7
2002-08-26 11:48:06 51°27.564 2°53.757 152.5 14.7 155.2 23.8
2002-08-26 11:49:06 51°27.342 2°53.922 152.7 14.7 155.1 24.7
2002-08-26 11:50:05 51°27.119 2°54.066 155.8 14.5 159.3 24.7
2002-08-26 11:51:06 51°26.886 2°54.208 155.8 14.6 161.3 24.2
2002-08-26 11:52:06 51°26.657 2°54.357 153 14.6 157.7 28.4
2002-08-26 11:53:06 51°26.43 2°54.5 155.8 14.6 160.6 24.6
2002-08-26 11:54:03 51°26.216 2°54.639 153 14.6 156.5 24.8
2002-08-26 11:55:06 51°25.98 2°54.797 152 14.4 155.5 24.1
2002-08-26 11:56:03 51°25.763 2°54.942 154.5 14.8 158.4 20.7
2002-08-26 11:57:06 51°25.526 2°55.109 151 14.9 153.4 18.3
2002-08-26 11:58:06 51°25.308 2°55.278 153.8 14.3 155.3 18.1
2002-08-26 11:59:06 51°25.087 2°55.436 153.3 15.1 155.1 19.4
2002-08-26 12:00:06 51°24.869 2°55.601 154 14.8 155.1 24.2
2002-08-26 12:01:06 51°24.646 2°55.767 154 14.8 155 23.5
2002-08-26 12:02:06 51°24.419 2°55.925 155.3 14.7 157.1 24.4
2002-08-26 12:03:06 51°24.197 2°56.076 154.7 14.9 157.2 21.3
2002-08-26 12:04:06 51°23.973 2°56.223 155.2 14.6 157.3 17.3
2002-08-26 12:05:06 51°23.747 2°56.384 152.8 15.2 155.3 16.7
2002-08-26 12:06:06 51°23.522 2°56.543 153.7 14.4 155.1 20
2002-08-26 12:07:06 51°23.297 2°56.701 156 14.9 157.5 18.7
2002-08-26 12:08:06 51°23.072 2°56.853 157.8 14.6 157.7 18.2
2002-08-26 12:09:06 51°22.847 2°57.008 156.3 14.7 157.1 18.6
2002-08-26 12:10:06 51°22.618 2°57.147 164.5 14.8 164.8 18.8
2002-08-26 12:11:06 51°22.376 2°57.227 169.7 14.9 169.6 18.7
2002-08-26 12:12:06 51°22.132 2°57.279 173.8 14.6 173.8 18
2002-08-26 12:13:06 51°21.882 2°57.309 176.5 15.2 176.4 16.6
2002-08-26 12:14:06 51°21.638 2°57.345 174.7 14.9 175.2 15.3
2002-08-26 12:15:06 51°21.389 2°57.376 175.3 15 175.9 14.4
2002-08-26 12:16:06 51°21.143 2°57.421 172.5 15 173.3 13.7
2002-08-26 12:17:06 51°20.898 2°57.457 175.7 14.9 175.8 13.4
2002-08-26 12:18:06 51°20.655 2°57.499 174 14.7 174.5 13
2002-08-26 12:19:06 51°20.409 2°57.544 172.8 14.9 173.5 12.7
2002-08-26 12:20:06 51°20.164 2°57.581 175.7 15.2 176.4 12.2
2002-08-26 12:21:06 51°19.918 2°57.594 183.3 15.3 183.3 11.9
2002-08-26 12:22:06 51°19.678 2°57.518 199.5 14.9 198.1 11.5
2002-08-26 12:23:04 51°19.503 2°57.28 237.2 14.5 233.8 11.4
2002-08-26 12:24:06 51°19.377 2°56.943 246.8 14.4 243 11.5
2002-08-26 12:25:06 51°19.281 2°56.59 251 14.4 247 11.6
2002-08-26 12:26:03 51°19.194 2°56.254 251 14.3 247.3 11.7
2002-08-26 12:27:06 51°19.1 2°55.882 252.2 14.4 247 11.9
2002-08-26 12:28:06 51°19.008 2°55.527 252.8 14.6 249 12
2002-08-26 12:29:06 51°18.918 2°55.167 251.7 14.5 247.3 12.1
2002-08-26 12:30:06 51°18.828 2°54.809 252.3 14.6 249 12.2
2002-08-26 12:31:06 51°18.735 2°54.451 251.5 14.4 247.4 12.3
2002-08-26 12:32:06 51°18.644 2°54.099 251.8 14.4 247.5 12.3
2002-08-26 12:33:06 51°18.557 2°53.744 251.7 14.4 248 12.3
2002-08-26 12:34:06 51°18.468 2°53.391 251.8 14.3 248.7 12.6
2002-08-26 12:35:06 51°18.374 2°53.043 248.5 14.2 244.5 12.6
2002-08-26 12:36:06 51°18.271 2°52.699 244.2 14.3 241 12.4
2002-08-26 12:37:06 51°18.116 2°52.41 223.5 14.5 220.8 12.1
2002-08-26 12:38:06 51°17.908 2°52.232 198.8 14.6 196.9 11.8
2002-08-26 12:39:06 51°17.671 2°52.209 181.3 13.8 180.4 11.7
2002-08-26 12:40:06 51°17.43 2°52.227 172 14.4 172.1 11.8
2002-08-26 12:41:04 51°17.197 2°52.313 163.7 15.1 163.2 11.8
2002-08-26 12:42:06 51°16.965 2°52.441 158.5 14.4 156.8 11.1
2002-08-26 12:43:06 51°16.741 2°52.592 157.7 14.1 156.9 11.5
2002-08-26 12:44:06 51°16.524 2°52.763 154.5 14.6 153.2 13.5
2002-08-26 12:45:06 51°16.311 2°52.938 154.2 14.4 151.4 14.2
2002-08-26 12:46:06 51°16.098 2°53.119 152.2 15.2 150.4 13.9
2002-08-26 12:47:06 51°15.888 2°53.307 150.8 15.2 150.3 13.5
2002-08-26 12:48:03 51°15.686 2°53.486 150.5 15 150.1 13
2002-08-26 12:49:03 51°15.477 2°53.675 153.8 14.3 152.1 12.1
2002-08-26 12:50:06 51°15.255 2°53.868 151.7 14.5 149.9 11.4
2002-08-26 12:51:06 51°15.05 2°54.057 150.5 14.4 148.8 10.8
2002-08-26 12:52:06 51°14.855 2°54.275 147.7 14.5 144.2 10.9
2002-08-26 12:53:06 51°14.664 2°54.484 149.7 13.3 145.5 11.9
2002-08-26 12:54:05 51°14.509 2°54.703 136.8 12.5 132.9 12
2002-08-26 12:55:06 51°14.387 2°54.975 124 12.3 119.4 12